createdAt,value
2022-09-29T00:00:19.393Z,2.50
2022-09-29T00:01:19.381Z,3.10
2022-09-29T00:02:19.381Z,2.80
2022-09-29T00:03:19.440Z,3.00
2022-09-29T00:04:19.375Z,3.20
2022-09-29T00:05:19.338Z,3.20
2022-09-29T00:06:19.333Z,2.80
2022-09-29T00:07:19.316Z,3.10
2022-09-29T00:08:19.306Z,3.10
2022-09-29T00:09:19.380Z,3.50
2022-09-29T00:10:19.287Z,3.00
2022-09-29T00:11:19.300Z,3.30
2022-09-29T00:12:19.268Z,3.30
2022-09-29T00:13:19.248Z,3.60
2022-09-29T00:14:19.377Z,3.00
2022-09-29T00:15:19.222Z,3.20
2022-09-29T00:16:19.243Z,3.70
2022-09-29T00:17:19.212Z,4.40
2022-09-29T00:18:19.192Z,3.70
2022-09-29T00:19:19.183Z,4.10
2022-09-29T00:20:19.183Z,3.40
2022-09-29T00:21:19.164Z,3.60
2022-09-29T00:22:19.161Z,4.10
2022-09-29T00:23:19.144Z,3.80
2022-09-29T00:24:19.283Z,4.10
2022-09-29T00:25:19.129Z,4.10
2022-09-29T00:26:19.119Z,4.50
2022-09-29T00:27:19.129Z,4.80
2022-09-29T00:28:19.087Z,4.00
2022-09-29T00:29:19.064Z,5.20
2022-09-29T00:30:19.056Z,4.90
2022-09-29T00:31:19.132Z,4.40
2022-09-29T00:32:19.036Z,5.00
2022-09-29T00:33:19.052Z,5.00
2022-09-29T00:34:19.103Z,5.30
2022-09-29T00:35:19.008Z,5.20
2022-09-29T00:36:18.993Z,5.80
2022-09-29T00:37:18.997Z,4.40
2022-09-29T00:38:18.968Z,5.00
2022-09-29T00:39:18.979Z,5.80
2022-09-29T00:40:19.065Z,5.50
2022-09-29T00:41:18.933Z,5.30
2022-09-29T00:42:18.928Z,4.90
2022-09-29T00:43:18.944Z,4.70
2022-09-29T00:44:18.996Z,4.40
2022-09-29T00:45:18.908Z,4.80
2022-09-29T00:46:18.900Z,4.70
2022-09-29T00:47:18.866Z,4.90
2022-09-29T00:48:18.863Z,5.10
2022-09-29T00:49:18.876Z,4.60
2022-09-29T00:50:18.851Z,4.90
2022-09-29T00:51:18.833Z,5.50
2022-09-29T00:52:18.826Z,5.80
2022-09-29T00:53:21.513Z,6.10
2022-09-29T00:54:18.921Z,4.90
2022-09-29T00:55:18.809Z,5.70
2022-09-29T00:56:18.768Z,5.70
2022-09-29T00:57:18.782Z,5.40
2022-09-29T00:58:18.770Z,4.70
2022-09-29T00:59:18.775Z,4.90
2022-09-29T01:00:18.746Z,5.10
2022-09-29T01:01:18.827Z,4.70
2022-09-29T01:02:18.827Z,5.30
2022-09-29T01:03:18.714Z,5.00
2022-09-29T01:04:18.785Z,4.60
2022-09-29T01:05:18.673Z,4.80
2022-09-29T01:06:18.671Z,4.40
2022-09-29T01:07:18.642Z,4.10
2022-09-29T01:08:18.636Z,4.30
2022-09-29T01:09:18.643Z,5.10
2022-09-29T01:10:18.625Z,4.80
2022-09-29T01:11:18.609Z,5.10
2022-09-29T01:12:18.613Z,4.40
2022-09-29T01:13:18.584Z,4.50
2022-09-29T01:14:18.726Z,4.90
2022-09-29T01:15:18.593Z,4.70
2022-09-29T01:16:18.584Z,4.40
2022-09-29T01:17:18.545Z,5.00
2022-09-29T01:18:18.555Z,4.30
2022-09-29T01:19:18.511Z,4.20
2022-09-29T01:20:18.517Z,4.80
2022-09-29T01:21:18.489Z,5.00
2022-09-29T01:22:18.478Z,4.60
2022-09-29T01:23:18.465Z,4.30
2022-09-29T01:24:18.607Z,4.40
2022-09-29T01:25:18.458Z,4.40
2022-09-29T01:26:18.446Z,4.40
2022-09-29T01:27:18.456Z,4.40
2022-09-29T01:28:18.422Z,4.20
2022-09-29T01:29:18.421Z,5.20
2022-09-29T01:30:18.406Z,3.90
2022-09-29T01:31:18.515Z,4.70
2022-09-29T01:32:18.379Z,4.30
2022-09-29T01:33:18.353Z,4.00
2022-09-29T01:34:18.356Z,4.40
2022-09-29T01:35:18.341Z,3.80
2022-09-29T01:36:18.331Z,4.40
2022-09-29T01:37:18.307Z,4.40
2022-09-29T01:38:18.303Z,4.50
2022-09-29T01:39:18.294Z,4.30
2022-09-29T01:40:18.340Z,4.30
2022-09-29T01:41:18.275Z,4.40
2022-09-29T01:42:18.268Z,5.20
2022-09-29T01:43:18.256Z,3.90
2022-09-29T01:44:18.435Z,4.20
2022-09-29T01:45:18.251Z,4.50
2022-09-29T01:46:18.306Z,4.70
2022-09-29T01:47:18.231Z,5.50
2022-09-29T01:48:18.190Z,5.50
2022-09-29T01:49:18.197Z,4.40
2022-09-29T01:50:18.183Z,4.80
2022-09-29T01:51:18.162Z,4.80
2022-09-29T01:52:18.152Z,4.80
2022-09-29T01:53:18.141Z,4.70
2022-09-29T01:54:18.145Z,4.90
2022-09-29T01:55:18.124Z,4.50
2022-09-29T01:56:18.103Z,4.50
2022-09-29T01:57:18.086Z,5.30
2022-09-29T01:58:18.084Z,5.10
2022-09-29T01:59:18.079Z,5.50
2022-09-29T02:00:18.063Z,5.00
2022-09-29T02:01:18.078Z,5.50
2022-09-29T02:02:18.084Z,5.00
2022-09-29T02:03:18.041Z,5.70
2022-09-29T02:04:18.033Z,5.20
2022-09-29T02:05:18.012Z,5.80
2022-09-29T02:06:17.996Z,6.30
2022-09-29T02:07:18.000Z,5.20
2022-09-29T02:08:17.965Z,5.60
2022-09-29T02:09:17.962Z,6.10
2022-09-29T02:10:17.948Z,6.00
2022-09-29T02:11:17.944Z,6.10
2022-09-29T02:12:17.928Z,5.70
2022-09-29T02:13:17.916Z,5.60
2022-09-29T02:14:17.996Z,5.40
2022-09-29T02:15:17.905Z,6.70
2022-09-29T02:16:17.945Z,5.50
2022-09-29T02:17:17.893Z,5.60
2022-09-29T02:18:17.866Z,5.30
2022-09-29T02:19:17.874Z,5.50
2022-09-29T02:20:17.867Z,5.90
2022-09-29T02:21:17.834Z,5.70
2022-09-29T02:22:17.812Z,5.70
2022-09-29T02:23:17.812Z,6.00
2022-09-29T02:24:17.797Z,6.20
2022-09-29T02:25:17.792Z,5.50
2022-09-29T02:26:17.781Z,5.70
2022-09-29T02:27:17.766Z,5.60
2022-09-29T02:28:17.760Z,5.70
2022-09-29T02:29:17.741Z,5.40
2022-09-29T02:30:17.737Z,5.60
2022-09-29T02:31:17.782Z,5.40
2022-09-29T02:32:17.699Z,5.00
2022-09-29T02:33:17.693Z,5.40
2022-09-29T02:34:17.799Z,5.10
2022-09-29T02:35:17.711Z,5.70
2022-09-29T02:36:17.680Z,5.20
2022-09-29T02:37:17.655Z,5.30
2022-09-29T02:38:17.635Z,5.40
2022-09-29T02:39:17.623Z,4.90
2022-09-29T02:40:17.740Z,5.20
2022-09-29T02:41:17.624Z,5.10
2022-09-29T02:42:17.606Z,5.40
2022-09-29T02:43:17.586Z,5.70
2022-09-29T02:44:17.643Z,4.90
2022-09-29T02:45:17.554Z,5.70
2022-09-29T02:46:17.547Z,5.30
2022-09-29T02:47:17.556Z,5.20
2022-09-29T02:48:17.549Z,6.20
2022-09-29T02:49:17.513Z,5.40
2022-09-29T02:50:17.502Z,5.70
2022-09-29T02:51:17.520Z,5.90
2022-09-29T02:52:17.495Z,5.30
2022-09-29T02:53:17.475Z,6.00
2022-09-29T02:54:17.558Z,5.20
2022-09-29T02:55:17.461Z,5.50
2022-09-29T02:56:17.444Z,6.00
2022-09-29T02:57:17.432Z,5.10
2022-09-29T02:58:17.410Z,6.30
2022-09-29T02:59:17.401Z,5.10
2022-09-29T03:00:17.389Z,5.40
2022-09-29T03:01:17.512Z,5.60
2022-09-29T03:02:17.400Z,5.10
2022-09-29T03:03:17.419Z,5.90
2022-09-29T03:04:17.434Z,5.50
2022-09-29T03:05:17.348Z,5.80
2022-09-29T03:06:17.347Z,5.20
2022-09-29T03:07:17.342Z,6.20
2022-09-29T03:08:17.327Z,5.90
2022-09-29T03:09:17.297Z,5.20
2022-09-29T03:10:17.301Z,5.30
2022-09-29T03:11:17.271Z,5.50
2022-09-29T03:12:17.264Z,5.00
2022-09-29T03:13:17.248Z,5.70
2022-09-29T03:14:17.354Z,5.00
2022-09-29T03:15:17.227Z,5.00
2022-09-29T03:16:17.287Z,5.60
2022-09-29T03:17:17.215Z,6.30
2022-09-29T03:18:17.194Z,5.10
2022-09-29T03:19:17.192Z,5.00
2022-09-29T03:20:17.182Z,5.70
2022-09-29T03:21:17.174Z,5.60
2022-09-29T03:22:17.155Z,4.90
2022-09-29T03:23:17.160Z,4.90
2022-09-29T03:24:17.174Z,5.80
2022-09-29T03:25:17.112Z,5.40
2022-09-29T03:26:17.111Z,5.30
2022-09-29T03:27:17.089Z,6.30
2022-09-29T03:28:17.094Z,6.20
2022-09-29T03:29:17.123Z,5.70
2022-09-29T03:30:17.065Z,5.40
2022-09-29T03:31:17.090Z,5.50
2022-09-29T03:32:17.040Z,5.50
2022-09-29T03:33:17.039Z,5.50
2022-09-29T03:34:17.018Z,5.20
2022-09-29T03:35:17.010Z,5.90
2022-09-29T03:36:16.996Z,5.80
2022-09-29T03:37:16.987Z,5.90
2022-09-29T03:38:16.981Z,6.20
2022-09-29T03:39:17.022Z,6.10
2022-09-29T03:40:17.024Z,6.10
2022-09-29T03:41:16.943Z,5.90
2022-09-29T03:42:16.923Z,5.70
2022-09-29T03:43:16.921Z,6.40
2022-09-29T03:44:16.909Z,5.90
2022-09-29T03:45:16.913Z,6.10
2022-09-29T03:46:16.890Z,5.70
2022-09-29T03:47:16.879Z,5.60
2022-09-29T03:48:16.863Z,6.20
2022-09-29T03:49:16.946Z,6.30
2022-09-29T03:50:16.850Z,5.90
2022-09-29T03:51:16.839Z,6.10
2022-09-29T03:52:16.825Z,5.80
2022-09-29T03:53:16.806Z,5.80
2022-09-29T03:54:16.789Z,5.80
2022-09-29T03:55:16.809Z,6.30
2022-09-29T03:56:16.774Z,6.40
2022-09-29T03:57:16.764Z,6.50
2022-09-29T03:58:16.759Z,6.20
2022-09-29T03:59:16.816Z,6.30
2022-09-29T04:00:16.727Z,5.80
2022-09-29T04:01:16.785Z,6.90
2022-09-29T04:02:16.723Z,6.60
2022-09-29T04:03:16.710Z,5.70
2022-09-29T04:04:16.693Z,6.10
2022-09-29T04:05:16.668Z,5.70
2022-09-29T04:06:16.694Z,6.20
2022-09-29T04:07:16.653Z,6.90
2022-09-29T04:08:16.650Z,6.90
2022-09-29T04:09:16.754Z,6.50
2022-09-29T04:10:16.627Z,5.90
2022-09-29T04:11:16.630Z,6.80
2022-09-29T04:12:16.611Z,6.70
2022-09-29T04:13:19.789Z,6.50
2022-09-29T04:14:16.585Z,6.90
2022-09-29T04:15:16.572Z,7.20
2022-09-29T04:16:16.599Z,6.30
2022-09-29T04:17:16.550Z,6.20
2022-09-29T04:18:16.528Z,7.20
2022-09-29T04:19:16.589Z,6.80
2022-09-29T04:20:16.523Z,6.30
2022-09-29T04:21:16.516Z,7.30
2022-09-29T04:22:16.488Z,6.10
2022-09-29T04:23:16.468Z,6.60
2022-09-29T04:24:16.467Z,6.80
2022-09-29T04:25:16.464Z,6.20
2022-09-29T04:26:16.443Z,5.40
2022-09-29T04:27:16.458Z,6.70
2022-09-29T04:28:16.433Z,6.70
2022-09-29T04:29:16.494Z,6.50
2022-09-29T04:30:16.399Z,6.60
2022-09-29T04:31:16.504Z,6.10
2022-09-29T04:32:16.388Z,6.60
2022-09-29T04:33:16.364Z,6.10
2022-09-29T04:34:18.760Z,6.70
2022-09-29T04:35:16.351Z,6.00
2022-09-29T04:36:16.336Z,6.40
2022-09-29T04:37:16.324Z,7.00
2022-09-29T04:38:16.320Z,6.60
2022-09-29T04:39:16.310Z,7.00
2022-09-29T04:40:16.289Z,6.10
2022-09-29T04:41:16.268Z,7.10
2022-09-29T04:42:16.277Z,6.80
2022-09-29T04:43:16.276Z,6.70
2022-09-29T04:44:16.254Z,6.60
2022-09-29T04:45:16.237Z,6.90
2022-09-29T04:46:16.280Z,7.00
2022-09-29T04:47:16.207Z,6.10
2022-09-29T04:48:16.199Z,6.50
2022-09-29T04:49:16.199Z,7.30
2022-09-29T04:50:16.183Z,6.30
2022-09-29T04:51:16.212Z,5.90
2022-09-29T04:52:16.174Z,7.80
2022-09-29T04:53:16.146Z,7.10
2022-09-29T04:54:16.131Z,6.60
2022-09-29T04:55:16.120Z,6.30
2022-09-29T04:56:16.126Z,6.80
2022-09-29T04:57:16.092Z,6.60
2022-09-29T04:58:16.097Z,7.40
2022-09-29T04:59:16.163Z,7.30
2022-09-29T05:00:16.064Z,6.80
2022-09-29T05:01:16.148Z,7.00
2022-09-29T05:02:16.225Z,7.00
2022-09-29T05:03:16.034Z,6.40
2022-09-29T05:04:16.028Z,6.90
2022-09-29T05:05:16.017Z,7.10
2022-09-29T05:06:16.030Z,7.10
2022-09-29T05:07:15.998Z,6.40
2022-09-29T05:08:16.003Z,6.70
2022-09-29T05:09:15.960Z,6.50
2022-09-29T05:10:15.983Z,7.00
2022-09-29T05:11:15.983Z,6.80
2022-09-29T05:12:15.979Z,7.10
2022-09-29T05:13:15.930Z,6.70
2022-09-29T05:14:15.926Z,6.60
2022-09-29T05:15:15.928Z,7.30
2022-09-29T05:16:15.940Z,6.30
2022-09-29T05:17:15.895Z,7.10
2022-09-29T05:18:15.871Z,6.50
2022-09-29T05:19:15.869Z,6.50
2022-09-29T05:20:15.840Z,6.00
2022-09-29T05:21:27.767Z,6.40
2022-09-29T05:22:16.840Z,7.30
2022-09-29T05:23:15.811Z,6.50
2022-09-29T05:24:15.799Z,6.20
2022-09-29T05:25:15.824Z,7.50
2022-09-29T05:26:15.797Z,6.00
2022-09-29T05:27:15.799Z,6.30
2022-09-29T05:28:15.747Z,6.40
2022-09-29T05:29:15.857Z,6.90
2022-09-29T05:30:15.769Z,7.10
2022-09-29T05:31:15.876Z,6.90
2022-09-29T05:32:15.709Z,6.50
2022-09-29T05:33:15.701Z,6.00
2022-09-29T05:34:15.691Z,7.10
2022-09-29T05:35:15.703Z,7.00
2022-09-29T05:36:15.715Z,6.60
2022-09-29T05:37:15.650Z,7.20
2022-09-29T05:38:15.645Z,7.00
2022-09-29T05:39:15.696Z,5.90
2022-09-29T05:40:15.638Z,7.10
2022-09-29T05:41:15.622Z,6.00
2022-09-29T05:42:15.613Z,7.30
2022-09-29T05:43:15.584Z,7.00
2022-09-29T05:44:15.601Z,7.10
2022-09-29T05:45:15.592Z,6.90
2022-09-29T05:46:15.612Z,7.20
2022-09-29T05:47:15.559Z,6.20
2022-09-29T05:48:15.563Z,7.00
2022-09-29T05:49:15.674Z,6.00
2022-09-29T05:50:15.566Z,6.90
2022-09-29T05:51:19.387Z,6.30
2022-09-29T05:52:16.519Z,6.40
2022-09-29T05:53:15.520Z,7.70
2022-09-29T05:54:15.504Z,7.20
2022-09-29T05:55:16.392Z,7.00
2022-09-29T05:56:15.445Z,6.70
2022-09-29T05:57:15.497Z,7.10
2022-09-29T05:58:15.445Z,6.80
2022-09-29T05:59:15.534Z,6.40
2022-09-29T06:00:15.427Z,6.80
2022-09-29T06:01:15.443Z,7.20
2022-09-29T06:02:15.500Z,7.00
2022-09-29T06:03:15.441Z,6.70
2022-09-29T06:04:15.385Z,6.90
2022-09-29T06:05:15.358Z,6.80
2022-09-29T06:06:15.351Z,8.00
2022-09-29T06:07:15.316Z,6.30
2022-09-29T06:08:15.431Z,6.70
2022-09-29T06:09:15.408Z,6.30
2022-09-29T06:10:15.284Z,6.20
2022-09-29T06:11:15.889Z,6.50
2022-09-29T06:12:17.741Z,6.70
2022-09-29T06:13:16.309Z,6.70
2022-09-29T06:14:15.259Z,7.00
2022-09-29T06:15:15.270Z,5.90
2022-09-29T06:16:15.324Z,6.50
2022-09-29T06:17:15.208Z,6.30
2022-09-29T06:18:15.224Z,7.70
2022-09-29T06:19:15.359Z,5.60
2022-09-29T06:20:15.175Z,6.60
2022-09-29T06:21:15.186Z,5.90
2022-09-29T06:22:15.346Z,6.30
2022-09-29T06:23:15.171Z,6.20
2022-09-29T06:24:15.148Z,5.80
2022-09-29T06:25:15.129Z,5.70
2022-09-29T06:26:16.467Z,6.40
2022-09-29T06:27:15.185Z,6.50
2022-09-29T06:28:15.124Z,6.20
2022-09-29T06:29:15.172Z,6.90
2022-09-29T06:30:15.086Z,6.50
2022-09-29T06:31:15.148Z,6.10
2022-09-29T06:32:15.141Z,5.90
2022-09-29T06:33:15.056Z,6.40
2022-09-29T06:34:15.032Z,6.00
2022-09-29T06:35:15.042Z,6.40
2022-09-29T06:36:15.051Z,6.30
2022-09-29T06:37:15.016Z,6.60
2022-09-29T06:38:15.015Z,5.90
2022-09-29T06:39:15.125Z,5.80
2022-09-29T06:40:14.963Z,5.40
2022-09-29T06:41:14.989Z,5.40
2022-09-29T06:42:14.950Z,5.30
2022-09-29T06:43:14.940Z,5.70
2022-09-29T06:44:14.925Z,6.20
2022-09-29T06:45:16.656Z,6.40
2022-09-29T06:46:14.982Z,6.70
2022-09-29T06:47:14.896Z,5.80
2022-09-29T06:48:14.867Z,6.40
2022-09-29T06:49:14.930Z,5.90
2022-09-29T06:50:18.862Z,5.90
2022-09-29T06:51:15.846Z,5.90
2022-09-29T06:52:20.985Z,6.20
2022-09-29T06:53:15.865Z,7.40
2022-09-29T06:54:14.803Z,7.80
2022-09-29T06:55:14.829Z,7.80
2022-09-29T06:56:14.803Z,7.10
2022-09-29T06:57:14.809Z,6.00
2022-09-29T06:58:14.764Z,6.80
2022-09-29T06:59:14.749Z,6.80
2022-09-29T07:00:14.772Z,7.50
2022-09-29T07:01:14.825Z,7.50
2022-09-29T07:02:14.747Z,6.60
2022-09-29T07:03:14.726Z,6.80
2022-09-29T07:04:14.680Z,6.50
2022-09-29T07:05:14.745Z,7.70
2022-09-29T07:06:19.698Z,7.80
2022-09-29T07:07:15.703Z,7.40
2022-09-29T07:08:14.642Z,8.10
2022-09-29T07:09:14.628Z,8.10
2022-09-29T07:10:14.674Z,5.40
2022-09-29T07:11:14.642Z,7.00
2022-09-29T07:12:14.933Z,6.70
2022-09-29T07:13:14.591Z,6.50
2022-09-29T07:14:14.650Z,7.10
2022-09-29T07:15:14.602Z,6.20
2022-09-29T07:16:14.742Z,8.00
2022-09-29T07:17:14.566Z,7.40
2022-09-29T07:18:14.532Z,7.70
2022-09-29T07:19:14.513Z,7.60
2022-09-29T07:20:15.373Z,7.30
2022-09-29T07:21:14.499Z,7.70
2022-09-29T07:22:14.486Z,8.20
2022-09-29T07:23:14.553Z,8.20
2022-09-29T07:24:14.499Z,8.00
2022-09-29T07:25:28.013Z,7.90
2022-09-29T07:26:15.458Z,7.90
2022-09-29T07:27:14.545Z,7.40
2022-09-29T07:28:15.388Z,5.70
2022-09-29T07:29:16.060Z,6.90
2022-09-29T07:30:14.406Z,7.10
2022-09-29T07:31:15.719Z,6.50
2022-09-29T07:32:26.248Z,6.10
2022-09-29T07:33:15.424Z,7.70
2022-09-29T07:34:14.383Z,8.20
2022-09-29T07:35:14.375Z,8.60
2022-09-29T07:36:14.326Z,8.30
2022-09-29T07:37:14.311Z,8.20
2022-09-29T07:38:14.299Z,8.30
2022-09-29T07:39:14.369Z,7.50
2022-09-29T07:40:14.311Z,7.90
2022-09-29T07:41:14.303Z,8.10
2022-09-29T07:42:14.320Z,7.60
2022-09-29T07:43:14.288Z,8.10
2022-09-29T07:44:14.886Z,8.80
2022-09-29T07:45:14.263Z,8.40
2022-09-29T07:46:14.294Z,7.00
2022-09-29T07:47:14.212Z,7.30
2022-09-29T07:48:14.233Z,7.40
2022-09-29T07:49:14.193Z,6.90
2022-09-29T07:50:14.922Z,6.70
2022-09-29T07:51:14.154Z,6.80
2022-09-29T07:52:14.190Z,7.10
2022-09-29T07:53:14.978Z,6.90
2022-09-29T07:54:14.133Z,6.40
2022-09-29T07:55:14.147Z,6.30
2022-09-29T07:56:14.111Z,6.40
2022-09-29T07:57:14.135Z,6.20
2022-09-29T07:58:14.920Z,5.80
2022-09-29T07:59:14.088Z,6.70
2022-09-29T08:00:14.067Z,6.90
2022-09-29T08:01:14.069Z,6.50
2022-09-29T08:02:14.133Z,6.10
2022-09-29T08:03:14.049Z,6.90
2022-09-29T08:04:14.009Z,7.30
2022-09-29T08:05:14.035Z,7.00
2022-09-29T08:06:13.979Z,7.70
2022-09-29T08:07:15.111Z,8.30
2022-09-29T08:08:13.983Z,8.30
2022-09-29T08:09:13.971Z,8.60
2022-09-29T08:10:17.687Z,8.70
2022-09-29T08:11:26.162Z,8.20
2022-09-29T08:12:14.913Z,9.10
2022-09-29T08:13:13.928Z,9.00
2022-09-29T08:14:13.921Z,9.00
2022-09-29T08:15:13.896Z,8.80
2022-09-29T08:16:13.975Z,8.30
2022-09-29T08:17:13.902Z,8.50
2022-09-29T08:18:13.891Z,9.10
2022-09-29T08:20:13.831Z,8.80
2022-09-29T08:21:13.886Z,8.00
2022-09-29T08:22:13.829Z,8.70
2022-09-29T08:23:13.824Z,9.60
2022-09-29T08:24:13.789Z,9.10
2022-09-29T08:25:13.769Z,9.00
2022-09-29T08:26:13.912Z,9.80
2022-09-29T08:27:18.760Z,10.00
2022-09-29T08:28:24.512Z,9.80
2022-09-29T08:29:17.101Z,9.20
2022-09-29T08:30:13.714Z,8.90
2022-09-29T08:31:13.747Z,8.30
2022-09-29T08:32:13.840Z,9.20
2022-09-29T08:33:13.703Z,9.40
2022-09-29T08:34:14.166Z,9.90
2022-09-29T08:35:13.663Z,9.00
2022-09-29T08:36:13.681Z,8.40
2022-09-29T08:37:13.682Z,8.60
2022-09-29T08:38:13.646Z,9.10
2022-09-29T08:39:13.619Z,9.00
2022-09-29T08:40:13.607Z,8.80
2022-09-29T08:41:13.621Z,8.90
2022-09-29T08:42:13.621Z,9.20
2022-09-29T08:43:15.840Z,9.20
2022-09-29T08:44:31.320Z,8.30
2022-09-29T08:45:16.685Z,9.00
2022-09-29T08:46:14.097Z,9.00
2022-09-29T08:47:13.639Z,8.50
2022-09-29T08:48:22.816Z,9.50
2022-09-29T08:49:25.909Z,9.40
2022-09-29T08:50:14.580Z,9.00
2022-09-29T08:51:13.512Z,8.60
2022-09-29T08:52:17.181Z,7.70
2022-09-29T08:53:24.665Z,8.10
2022-09-29T08:54:14.460Z,7.70
2022-09-29T08:55:20.439Z,8.90
2022-09-29T08:56:14.618Z,8.80
2022-09-29T08:57:13.416Z,8.60
2022-09-29T08:58:14.396Z,8.10
2022-09-29T08:59:13.528Z,7.90
2022-09-29T09:00:13.399Z,8.80
2022-09-29T09:01:13.419Z,8.40
2022-09-29T09:02:13.420Z,8.10
2022-09-29T09:03:13.409Z,8.90
2022-09-29T09:04:13.326Z,8.20
2022-09-29T09:05:13.349Z,8.70
2022-09-29T09:06:13.369Z,7.90
2022-09-29T09:07:13.331Z,8.20
2022-09-29T09:08:13.353Z,8.10
2022-09-29T09:09:13.357Z,8.80
2022-09-29T09:10:13.285Z,8.20
2022-09-29T09:11:13.267Z,7.60
2022-09-29T09:12:13.256Z,8.40
2022-09-29T09:13:13.232Z,8.00
2022-09-29T09:14:13.259Z,8.80
2022-09-29T09:15:13.359Z,8.10
2022-09-29T09:16:13.239Z,8.30
2022-09-29T09:17:13.190Z,8.80
2022-09-29T09:18:13.178Z,8.80
2022-09-29T09:19:13.233Z,8.80
2022-09-29T09:20:13.181Z,8.40
2022-09-29T09:21:13.235Z,9.00
2022-09-29T09:22:13.140Z,8.40
2022-09-29T09:23:13.284Z,9.40
2022-09-29T09:24:13.297Z,8.80
2022-09-29T09:25:13.157Z,8.70
2022-09-29T09:26:13.085Z,8.80
2022-09-29T09:27:13.081Z,8.50
2022-09-29T09:28:13.223Z,8.30
2022-09-29T09:29:13.068Z,8.80
2022-09-29T09:30:13.059Z,8.80
2022-09-29T09:31:13.200Z,8.30
2022-09-29T09:32:13.015Z,9.30
2022-09-29T09:33:22.504Z,8.90
2022-09-29T09:34:14.916Z,8.40
2022-09-29T09:35:22.753Z,8.70
2022-09-29T09:36:17.502Z,8.90
2022-09-29T09:37:13.962Z,8.60
2022-09-29T09:38:13.003Z,9.20
2022-09-29T09:39:12.951Z,8.80
2022-09-29T09:40:12.952Z,8.40
2022-09-29T09:41:12.934Z,8.60
2022-09-29T09:42:12.912Z,9.00
2022-09-29T09:43:12.927Z,8.60
2022-09-29T09:44:13.001Z,8.80
2022-09-29T09:45:13.391Z,8.40
2022-09-29T09:46:12.941Z,8.50
2022-09-29T09:47:12.940Z,8.00
2022-09-29T09:48:12.860Z,8.30
2022-09-29T09:49:12.957Z,8.10
2022-09-29T09:50:12.951Z,7.70
2022-09-29T09:51:12.808Z,7.20
2022-09-29T09:53:15.252Z,7.10
2022-09-29T09:54:12.926Z,7.20
2022-09-29T09:55:12.762Z,6.70
2022-09-29T09:56:12.812Z,7.00
2022-09-29T09:57:12.767Z,7.30
2022-09-29T09:58:12.739Z,6.40
2022-09-29T09:59:12.792Z,6.50
2022-09-29T10:00:12.761Z,6.60
2022-09-29T10:01:12.878Z,7.10
2022-09-29T10:02:12.758Z,6.20
2022-09-29T10:03:12.727Z,6.30
2022-09-29T10:04:12.670Z,5.70
2022-09-29T10:05:12.639Z,6.00
2022-09-29T10:06:12.627Z,6.20
2022-09-29T10:07:12.653Z,6.00
2022-09-29T10:08:12.648Z,5.70
2022-09-29T10:09:12.796Z,6.60
2022-09-29T10:10:12.661Z,5.70
2022-09-29T10:11:12.577Z,5.80
2022-09-29T10:12:12.589Z,5.40
2022-09-29T10:13:12.576Z,5.50
2022-09-29T10:14:12.557Z,5.00
2022-09-29T10:15:12.541Z,5.20
2022-09-29T10:16:12.607Z,5.30
2022-09-29T10:17:12.551Z,5.20
2022-09-29T10:18:12.517Z,4.50
2022-09-29T10:19:12.575Z,4.30
2022-09-29T10:20:12.488Z,4.60
2022-09-29T10:21:12.455Z,3.80
2022-09-29T10:22:12.556Z,3.40
2022-09-29T10:23:12.461Z,3.50
2022-09-29T10:24:12.476Z,3.30
2022-09-29T10:25:12.470Z,3.40
2022-09-29T10:26:12.447Z,3.40
2022-09-29T10:27:12.429Z,3.50
2022-09-29T10:28:12.395Z,3.60
2022-09-29T10:29:12.465Z,3.60
2022-09-29T10:30:12.358Z,3.10
2022-09-29T10:31:12.537Z,3.20
2022-09-29T10:32:12.346Z,4.10
2022-09-29T10:33:12.468Z,4.10
2022-09-29T10:34:12.307Z,3.70
2022-09-29T10:35:12.341Z,3.60
2022-09-29T10:36:12.308Z,3.60
2022-09-29T10:37:12.316Z,3.80
2022-09-29T10:38:12.290Z,3.40
2022-09-29T10:39:12.249Z,3.90
2022-09-29T10:40:12.249Z,3.30
2022-09-29T10:41:12.259Z,3.70
2022-09-29T10:42:12.247Z,3.30
2022-09-29T10:43:12.226Z,3.30
2022-09-29T10:44:12.228Z,3.30
2022-09-29T10:45:12.218Z,3.50
2022-09-29T10:46:12.257Z,3.30
2022-09-29T10:47:12.193Z,3.20
2022-09-29T10:48:12.160Z,3.00
2022-09-29T10:49:12.192Z,3.10
2022-09-29T10:50:12.159Z,3.20
2022-09-29T10:51:12.209Z,2.80
2022-09-29T10:52:12.130Z,2.90
2022-09-29T10:53:13.183Z,3.30
2022-09-29T10:54:12.092Z,3.10
2022-09-29T10:55:12.096Z,2.80
2022-09-29T10:56:12.077Z,2.90
2022-09-29T10:57:12.061Z,2.90
2022-09-29T10:58:12.063Z,2.70
2022-09-29T10:59:12.023Z,2.70
2022-09-29T11:00:12.049Z,2.60
2022-09-29T11:01:12.126Z,2.60
2022-09-29T11:02:12.039Z,2.70
2022-09-29T11:03:11.984Z,2.50
2022-09-29T11:04:12.010Z,2.50
2022-09-29T11:05:11.989Z,2.20
2022-09-29T11:06:11.968Z,2.40
2022-09-29T11:07:11.978Z,2.80
2022-09-29T11:08:11.920Z,2.40
2022-09-29T11:09:11.969Z,2.60
2022-09-29T11:10:11.922Z,2.50
2022-09-29T11:11:11.947Z,2.30
2022-09-29T11:12:11.874Z,2.20
2022-09-29T11:13:11.866Z,2.40
2022-09-29T11:14:11.857Z,2.40
2022-09-29T11:15:11.867Z,2.20
2022-09-29T11:16:11.950Z,2.20
2022-09-29T11:17:11.903Z,1.70
2022-09-29T11:18:11.865Z,2.20
2022-09-29T11:19:11.830Z,1.90
2022-09-29T11:20:11.818Z,1.50
2022-09-29T11:21:11.789Z,1.70
2022-09-29T11:22:11.780Z,1.60
2022-09-29T11:23:11.782Z,1.90
2022-09-29T11:24:11.765Z,2.10
2022-09-29T11:25:11.834Z,1.90
2022-09-29T11:26:11.722Z,1.90
2022-09-29T11:27:11.711Z,1.90
2022-09-29T11:28:11.743Z,2.00
2022-09-29T11:29:11.728Z,2.30
2022-09-29T11:30:11.696Z,1.70
2022-09-29T11:31:11.665Z,2.00
2022-09-29T11:32:13.708Z,1.70
2022-09-29T11:33:11.673Z,1.80
2022-09-29T11:34:11.651Z,2.00
2022-09-29T11:35:11.715Z,1.50
2022-09-29T11:36:11.615Z,1.70
2022-09-29T11:37:11.603Z,1.20
2022-09-29T11:38:11.618Z,1.30
2022-09-29T11:39:11.612Z,1.40
2022-09-29T11:40:11.594Z,1.20
2022-09-29T11:41:11.556Z,1.30
2022-09-29T11:42:11.540Z,1.30
2022-09-29T11:43:11.580Z,1.50
2022-09-29T11:44:11.542Z,1.50
2022-09-29T11:45:11.561Z,1.50
2022-09-29T11:46:11.555Z,1.40
2022-09-29T11:47:11.479Z,1.20
2022-09-29T11:48:11.504Z,1.20
2022-09-29T11:49:11.491Z,1.10
2022-09-29T11:50:11.445Z,1.10
2022-09-29T11:51:11.444Z,1.20
2022-09-29T11:52:11.475Z,1.50
2022-09-29T11:53:11.438Z,1.30
2022-09-29T11:54:11.446Z,1.40
2022-09-29T11:55:11.559Z,1.30
2022-09-29T11:56:11.384Z,1.10
2022-09-29T11:57:11.407Z,1.20
2022-09-29T11:58:11.381Z,1.00
2022-09-29T11:59:11.377Z,1.10
2022-09-29T12:00:11.343Z,0.80
2022-09-29T12:01:11.405Z,0.70
2022-09-29T12:02:11.541Z,1.00
2022-09-29T12:03:11.417Z,0.80
2022-09-29T12:04:11.316Z,0.60
2022-09-29T12:05:11.288Z,0.80
2022-09-29T12:06:11.267Z,0.80
2022-09-29T12:07:11.289Z,0.80
2022-09-29T12:08:11.288Z,0.80
2022-09-29T12:09:11.300Z,1.00
2022-09-29T12:10:11.245Z,0.80
2022-09-29T12:11:41.695Z,0.90
2022-09-29T12:12:23.249Z,0.90
2022-09-29T12:13:12.235Z,1.00
2022-09-29T12:14:11.196Z,0.90
2022-09-29T12:15:11.258Z,0.90
2022-09-29T12:16:11.210Z,0.90
2022-09-29T12:17:11.311Z,1.00
2022-09-29T12:18:11.163Z,1.30
2022-09-29T12:19:11.122Z,1.10
2022-09-29T12:20:11.131Z,1.00
2022-09-29T12:21:15.440Z,1.30
2022-09-29T12:22:12.094Z,1.10
2022-09-29T12:23:11.100Z,1.00
2022-09-29T12:24:11.072Z,1.00
2022-09-29T12:25:11.060Z,0.90
2022-09-29T12:26:11.093Z,0.90
2022-09-29T12:27:11.127Z,1.00
2022-09-29T12:28:11.061Z,1.10
2022-09-29T12:29:11.018Z,1.10
2022-09-29T12:30:11.005Z,1.00
2022-09-29T12:31:11.176Z,1.20
2022-09-29T12:32:11.019Z,1.20
2022-09-29T12:33:10.999Z,1.10
2022-09-29T12:34:10.957Z,1.10
2022-09-29T12:35:10.946Z,1.30
2022-09-29T12:36:10.978Z,1.00
2022-09-29T12:37:10.972Z,1.10
2022-09-29T12:38:10.908Z,0.90
2022-09-29T12:39:10.908Z,1.30
2022-09-29T12:40:10.936Z,1.30
2022-09-29T12:41:10.901Z,1.30
2022-09-29T12:42:10.889Z,1.60
2022-09-29T12:43:10.882Z,1.20
2022-09-29T12:44:10.841Z,1.30
2022-09-29T12:45:11.450Z,1.30
2022-09-29T12:46:10.870Z,1.30
2022-09-29T12:47:10.832Z,1.40
2022-09-29T12:48:10.815Z,1.30
2022-09-29T12:49:10.790Z,1.60
2022-09-29T12:50:10.811Z,1.60
2022-09-29T12:51:10.804Z,1.10
2022-09-29T12:52:10.760Z,1.30
2022-09-29T12:53:10.798Z,1.20
2022-09-29T12:54:12.596Z,1.30
2022-09-29T12:55:10.764Z,1.20
2022-09-29T12:56:10.724Z,1.20
2022-09-29T12:57:10.787Z,1.40
2022-09-29T12:58:10.690Z,1.30
2022-09-29T12:59:10.724Z,1.20
2022-09-29T13:00:10.697Z,1.30
2022-09-29T13:01:10.746Z,1.40
2022-09-29T13:02:10.709Z,1.40
2022-09-29T13:03:10.647Z,1.30
2022-09-29T13:04:15.270Z,1.30
2022-09-29T13:05:11.642Z,1.10
2022-09-29T13:06:10.617Z,1.20
2022-09-29T13:07:10.579Z,1.20
2022-09-29T13:08:10.632Z,1.10
2022-09-29T13:09:10.650Z,1.10
2022-09-29T13:10:10.566Z,1.20
2022-09-29T13:11:10.553Z,1.00
2022-09-29T13:12:10.564Z,1.00
2022-09-29T13:13:10.527Z,0.90
2022-09-29T13:14:10.958Z,1.00
2022-09-29T13:15:10.541Z,0.90
2022-09-29T13:16:10.536Z,0.90
2022-09-29T13:17:10.491Z,1.10
2022-09-29T13:18:10.501Z,1.00
2022-09-29T13:19:20.270Z,1.00
2022-09-29T13:20:11.470Z,0.90